createdAt,value
2023-01-25T00:01:55.774Z,3.08
2023-01-25T00:04:24.848Z,3.27
2023-01-25T00:06:53.086Z,2.56
2023-01-25T00:09:22.623Z,3.07
2023-01-25T00:11:50.970Z,2.44
2023-01-25T00:14:19.792Z,2.86
2023-01-25T00:16:49.408Z,3.22
2023-01-25T00:19:18.177Z,2.95
2023-01-25T00:21:46.438Z,2.28
2023-01-25T00:24:15.445Z,2.29
2023-01-25T00:26:46.845Z,3.16
2023-01-25T00:29:15.726Z,3.02
2023-01-25T00:31:56.338Z,2.76
2023-01-25T00:34:46.141Z,3.63
2023-01-25T00:37:20.759Z,3.02
2023-01-25T00:39:49.542Z,2.52
2023-01-25T00:42:19.516Z,2.68
2023-01-25T00:44:48.432Z,3.02
2023-01-25T00:47:18.442Z,3.40
2023-01-25T00:49:47.887Z,2.88
2023-01-25T00:52:16.345Z,3.26
2023-01-25T00:54:45.171Z,2.93
2023-01-25T00:57:13.419Z,2.33
2023-01-25T00:59:44.819Z,2.26
2023-01-25T01:02:13.814Z,3.08
2023-01-25T01:04:46.366Z,2.95
2023-01-25T01:07:15.355Z,2.92
2023-01-25T01:09:43.872Z,2.68
2023-01-25T01:12:12.181Z,2.73
2023-01-25T01:14:40.718Z,2.83
2023-01-25T01:17:09.174Z,2.77
2023-01-25T01:19:37.695Z,2.61
2023-01-25T01:22:07.281Z,2.71
2023-01-25T01:24:35.878Z,3.03
2023-01-25T01:27:04.071Z,2.71
2023-01-25T01:29:32.776Z,3.27
2023-01-25T01:32:01.165Z,3.07
2023-01-25T01:34:29.862Z,3.12
2023-01-25T01:36:58.143Z,3.16
2023-01-25T01:39:28.163Z,3.55
2023-01-25T01:41:56.572Z,3.62
2023-01-25T01:44:46.407Z,3.81
2023-01-25T01:47:18.815Z,3.67
2023-01-25T01:49:51.647Z,3.23
2023-01-25T01:52:23.011Z,3.58
2023-01-25T01:54:55.873Z,3.93
2023-01-25T01:57:26.427Z,3.48
2023-01-25T01:59:58.345Z,3.75
2023-01-25T02:02:27.789Z,3.93
2023-01-25T02:04:58.500Z,3.87
2023-01-25T02:07:34.681Z,3.74
2023-01-25T02:10:06.112Z,3.68
2023-01-25T02:12:34.370Z,3.34
2023-01-25T02:15:02.808Z,3.48
2023-01-25T02:17:32.960Z,3.46
2023-01-25T02:20:05.291Z,3.94
2023-01-25T02:22:43.580Z,4.16
2023-01-25T02:25:15.198Z,4.01
2023-01-25T02:27:46.683Z,3.83
2023-01-25T02:30:16.032Z,3.54
2023-01-25T02:32:44.234Z,3.73
2023-01-25T02:35:20.246Z,4.12
2023-01-25T02:37:48.608Z,3.38
2023-01-25T02:40:19.157Z,3.76
2023-01-25T02:42:47.852Z,3.74
2023-01-25T02:45:18.447Z,4.06
2023-01-25T02:47:46.650Z,3.73
2023-01-25T02:50:15.980Z,3.86
2023-01-25T02:52:44.318Z,3.99
2023-01-25T02:55:13.016Z,3.99
2023-01-25T02:57:42.701Z,4.40
2023-01-25T03:00:12.861Z,4.29
2023-01-25T03:02:43.954Z,3.95
2023-01-25T03:05:12.770Z,3.92
2023-01-25T03:07:40.984Z,3.96
2023-01-25T03:10:10.869Z,4.15
2023-01-25T03:12:39.199Z,3.86
2023-01-25T03:15:10.679Z,4.35
2023-01-25T03:17:38.847Z,4.91
2023-01-25T03:20:08.325Z,4.07
2023-01-25T03:22:36.705Z,3.73
2023-01-25T03:25:06.118Z,3.95
2023-01-25T03:27:34.878Z,4.05
2023-01-25T03:30:03.329Z,3.99
2023-01-25T03:32:32.906Z,4.34
2023-01-25T03:35:02.429Z,4.24
2023-01-25T03:37:31.534Z,3.92
2023-01-25T03:40:00.100Z,3.47
2023-01-25T03:42:28.342Z,3.72
2023-01-25T03:44:56.889Z,3.92
2023-01-25T03:47:25.087Z,3.94
2023-01-25T03:49:55.085Z,4.22
2023-01-25T03:52:24.769Z,3.95
2023-01-25T03:54:53.584Z,4.07
2023-01-25T03:57:21.742Z,3.92
2023-01-25T03:59:50.401Z,4.09
2023-01-25T04:02:18.592Z,4.00
2023-01-25T04:04:47.957Z,4.01
2023-01-25T04:07:17.533Z,4.35
2023-01-25T04:09:46.092Z,3.98
2023-01-25T04:12:14.290Z,4.00
2023-01-25T04:14:44.871Z,4.09
2023-01-25T04:17:14.227Z,4.23
2023-01-25T04:19:42.875Z,4.19
2023-01-25T04:22:11.151Z,3.96
2023-01-25T04:24:41.381Z,4.46
2023-01-25T04:27:10.066Z,4.16
2023-01-25T04:29:41.574Z,4.01
2023-01-25T04:32:10.269Z,3.96
2023-01-25T04:34:38.931Z,4.04
2023-01-25T04:37:07.180Z,4.24
2023-01-25T04:39:35.801Z,4.22
2023-01-25T04:42:05.566Z,4.55
2023-01-25T04:44:34.089Z,4.01
2023-01-25T04:47:03.848Z,4.15
2023-01-25T04:49:32.653Z,4.16
2023-01-25T04:52:01.583Z,4.25
2023-01-25T04:54:30.285Z,3.99
2023-01-25T04:56:58.674Z,4.22
2023-01-25T04:59:28.626Z,4.55
2023-01-25T05:01:56.991Z,4.29
2023-01-25T05:04:25.643Z,4.29
2023-01-25T05:06:53.936Z,4.26
2023-01-25T05:09:22.516Z,4.32
2023-01-25T05:11:50.691Z,4.40
2023-01-25T05:14:19.273Z,4.42
2023-01-25T05:16:48.963Z,4.85
2023-01-25T05:19:17.703Z,4.52
2023-01-25T05:22:00.822Z,4.57
2023-01-25T05:24:30.799Z,4.95
2023-01-25T05:27:01.209Z,4.76
2023-01-25T05:29:30.048Z,4.73
2023-01-25T05:32:00.705Z,5.11
2023-01-25T05:34:29.235Z,4.76
2023-01-25T05:36:58.237Z,4.81
2023-01-25T05:39:26.778Z,4.59
2023-01-25T05:41:55.209Z,4.52
2023-01-25T05:44:24.460Z,4.66
2023-01-25T05:46:53.123Z,4.47
2023-01-25T05:49:23.170Z,4.66
2023-01-25T05:51:51.502Z,4.39
2023-01-25T05:54:19.969Z,4.51
2023-01-25T05:56:50.742Z,4.90
2023-01-25T05:59:19.533Z,4.55
2023-01-25T06:01:48.179Z,4.54
2023-01-25T06:04:17.603Z,4.90
2023-01-25T06:06:47.626Z,5.03
2023-01-25T06:09:16.672Z,4.82
2023-01-25T06:11:46.118Z,4.84
2023-01-25T06:14:14.774Z,4.70
2023-01-25T06:16:43.139Z,4.64
2023-01-25T06:19:14.139Z,4.95
2023-01-25T06:21:42.384Z,4.57
2023-01-25T06:24:12.612Z,4.87
2023-01-25T06:26:41.055Z,4.60
2023-01-25T06:29:10.004Z,4.50
2023-01-25T06:31:38.408Z,4.53
2023-01-25T06:34:08.246Z,4.42
2023-01-25T06:36:36.797Z,4.36
2023-01-25T06:39:05.722Z,4.32
2023-01-25T06:41:35.548Z,4.68
2023-01-25T06:44:04.118Z,4.26
2023-01-25T06:46:33.815Z,4.46
2023-01-25T06:49:02.508Z,4.17
2023-01-25T06:51:31.037Z,4.30
2023-01-25T06:54:03.863Z,4.61
2023-01-25T06:56:32.770Z,4.36
2023-01-25T06:59:02.825Z,4.54
2023-01-25T07:01:31.166Z,4.17
2023-01-25T07:04:00.770Z,4.35
2023-01-25T07:06:33.800Z,4.49
2023-01-25T07:09:06.489Z,4.40
2023-01-25T07:11:38.425Z,3.89
2023-01-25T07:14:08.879Z,4.23
2023-01-25T07:16:38.653Z,3.96
2023-01-25T07:19:08.432Z,4.16
2023-01-25T07:21:36.830Z,4.19
2023-01-25T07:24:06.549Z,4.45
2023-01-25T07:26:35.464Z,4.24
2023-01-25T07:29:03.971Z,4.11
2023-01-25T07:31:34.265Z,4.67
2023-01-25T07:34:03.101Z,4.30
2023-01-25T07:36:31.362Z,4.27
2023-01-25T07:39:00.106Z,4.45
2023-01-25T07:41:28.792Z,4.52
2023-01-25T07:43:57.534Z,4.43
2023-01-25T07:46:25.975Z,4.49
2023-01-25T07:48:56.519Z,4.72
2023-01-25T07:51:26.677Z,4.68
2023-01-25T07:53:56.848Z,4.91
2023-01-25T07:56:26.833Z,4.84
2023-01-25T07:58:56.126Z,4.72
2023-01-25T08:01:28.225Z,4.79
2023-01-25T08:03:58.488Z,4.91
2023-01-25T08:06:30.788Z,4.74
2023-01-25T08:09:00.569Z,4.80
2023-01-25T08:11:31.096Z,4.82
2023-01-25T08:14:02.173Z,4.45
2023-01-25T08:16:31.204Z,4.47
2023-01-25T08:19:03.378Z,4.73
2023-01-25T08:21:34.379Z,4.70
2023-01-25T08:24:05.001Z,4.52
2023-01-25T08:26:33.416Z,4.37
2023-01-25T08:29:01.966Z,4.46
2023-01-25T08:31:31.731Z,4.77
2023-01-25T08:34:02.320Z,5.03
2023-01-25T08:36:30.797Z,4.66
2023-01-25T08:39:01.104Z,4.73
2023-01-25T08:41:30.639Z,4.68
2023-01-25T08:43:59.251Z,4.42
2023-01-25T08:46:30.539Z,4.60
2023-01-25T08:49:02.911Z,4.72
2023-01-25T08:51:32.586Z,4.57
2023-01-25T08:54:04.457Z,4.72
2023-01-25T08:56:32.755Z,4.39
2023-01-25T08:59:01.676Z,4.26
2023-01-25T09:01:30.163Z,4.45
2023-01-25T09:03:59.219Z,4.52
2023-01-25T09:06:28.839Z,4.83
2023-01-25T09:08:57.428Z,4.52
2023-01-25T09:11:28.171Z,4.49
2023-01-25T09:13:56.987Z,4.62
2023-01-25T09:16:29.611Z,4.85
2023-01-25T09:18:59.354Z,4.84
2023-01-25T09:21:29.565Z,5.01
2023-01-25T09:24:07.284Z,4.75
2023-01-25T09:26:37.868Z,4.70
2023-01-25T09:29:08.111Z,4.53
2023-01-25T09:31:40.896Z,4.85
2023-01-25T09:34:11.379Z,4.64
2023-01-25T09:36:41.100Z,4.88
2023-01-25T09:39:12.453Z,4.85
2023-01-25T09:42:06.748Z,5.05
2023-01-25T09:44:49.883Z,5.34
2023-01-25T09:47:22.919Z,5.31
2023-01-25T09:50:02.773Z,5.50
2023-01-25T09:52:50.861Z,5.60
2023-01-25T09:55:22.827Z,5.23
2023-01-25T09:57:54.184Z,5.15
2023-01-25T10:00:25.952Z,5.27
2023-01-25T10:02:57.079Z,5.31
2023-01-25T10:05:28.777Z,5.33
2023-01-25T10:07:59.089Z,5.82
2023-01-25T10:10:31.804Z,5.47
2023-01-25T10:13:00.076Z,5.00
2023-01-25T10:15:33.565Z,5.52
2023-01-25T10:18:06.446Z,5.54
2023-01-25T10:20:40.909Z,5.42
2023-01-25T10:23:29.535Z,5.57
2023-01-25T10:26:00.868Z,5.14
2023-01-25T10:28:39.343Z,5.01
2023-01-25T10:31:16.307Z,4.81
2023-01-25T10:33:46.241Z,4.56
2023-01-25T10:36:16.589Z,4.71
2023-01-25T10:38:47.644Z,4.86
2023-01-25T10:41:20.606Z,4.95
2023-01-25T10:44:09.007Z,4.47
2023-01-25T10:46:38.069Z,4.61
2023-01-25T10:49:21.962Z,5.17
2023-01-25T10:51:50.587Z,4.74
2023-01-25T10:54:20.282Z,4.93
2023-01-25T10:56:49.136Z,4.80
2023-01-25T10:59:20.169Z,5.36
2023-01-25T11:01:48.648Z,5.74
2023-01-25T11:04:32.635Z,5.55
2023-01-25T11:07:02.679Z,5.18
2023-01-25T11:09:34.949Z,5.76
2023-01-25T11:12:05.060Z,5.83
2023-01-25T11:14:34.666Z,5.83
2023-01-25T11:17:05.547Z,5.78
2023-01-25T11:19:36.239Z,5.58
2023-01-25T11:22:08.134Z,5.72
2023-01-25T11:24:38.019Z,5.68
2023-01-25T11:27:15.625Z,6.15
2023-01-25T11:29:47.225Z,5.77
2023-01-25T11:32:22.830Z,6.14
2023-01-25T11:34:52.227Z,5.97
2023-01-25T11:37:30.780Z,6.50
2023-01-25T11:40:12.524Z,6.85
2023-01-25T11:42:47.283Z,6.70
2023-01-25T11:45:36.041Z,6.64
2023-01-25T11:48:14.702Z,6.46
2023-01-25T11:50:47.383Z,6.38
2023-01-25T11:53:30.543Z,6.57
2023-01-25T11:56:08.509Z,6.60
2023-01-25T11:58:53.679Z,6.60
2023-01-25T12:01:26.110Z,6.58
2023-01-25T12:04:30.114Z,6.82
2023-01-25T12:07:01.101Z,6.66
2023-01-25T12:09:33.494Z,6.82
2023-01-25T12:12:17.624Z,6.63
2023-01-25T12:15:12.098Z,6.83
2023-01-25T12:17:51.175Z,6.67
2023-01-25T12:20:36.765Z,6.86
2023-01-25T12:23:27.429Z,7.00
2023-01-25T12:26:05.996Z,6.83
2023-01-25T12:28:43.037Z,6.81
2023-01-25T12:31:21.066Z,6.47
2023-01-25T12:33:52.347Z,6.31
2023-01-25T12:36:25.597Z,6.19
2023-01-25T12:38:57.818Z,6.06
2023-01-25T12:41:36.079Z,6.33
2023-01-25T12:44:10.881Z,6.37
2023-01-25T12:46:43.942Z,6.41
2023-01-25T12:49:19.688Z,6.54
2023-01-25T12:51:50.159Z,6.32
2023-01-25T12:54:22.217Z,6.73
2023-01-25T12:56:58.657Z,6.86
2023-01-25T12:59:36.196Z,6.88
2023-01-25T13:02:15.077Z,6.84
2023-01-25T13:04:54.900Z,6.42
2023-01-25T13:07:27.753Z,6.05
2023-01-25T13:10:00.603Z,6.23
2023-01-25T13:12:29.586Z,5.84
2023-01-25T13:14:59.378Z,6.32
2023-01-25T13:17:34.820Z,6.53
2023-01-25T13:20:43.116Z,6.98
2023-01-25T13:23:32.191Z,6.90
2023-01-25T13:26:44.973Z,6.69
2023-01-25T13:29:47.393Z,6.88
2023-01-25T13:33:07.631Z,6.90
2023-01-25T13:35:38.410Z,6.63
2023-01-25T13:38:33.592Z,7.00
2023-01-25T13:41:14.924Z,6.88
2023-01-25T13:43:45.582Z,6.41
2023-01-25T13:46:17.698Z,6.36
2023-01-25T13:48:55.325Z,5.87
2023-01-25T13:51:24.369Z,5.41
2023-01-25T13:53:59.911Z,5.76
2023-01-25T13:56:31.606Z,5.71
2023-01-25T13:58:59.778Z,6.46
2023-01-25T14:01:29.973Z,5.99
2023-01-25T14:04:02.378Z,6.09
2023-01-25T14:06:33.636Z,5.97
2023-01-25T14:09:07.622Z,5.78
2023-01-25T14:11:42.509Z,5.50
2023-01-25T14:14:20.085Z,5.70
2023-01-25T14:17:02.395Z,5.73
2023-01-25T14:19:33.645Z,5.43
2023-01-25T14:22:26.432Z,5.97
2023-01-25T14:25:07.498Z,5.98
2023-01-25T14:27:36.188Z,6.37
2023-01-25T14:30:06.335Z,5.85
2023-01-25T14:32:37.075Z,5.48
2023-01-25T14:35:49.286Z,6.18
2023-01-25T14:38:31.082Z,6.02
2023-01-25T14:41:07.392Z,5.96
2023-01-25T14:43:38.000Z,5.76
2023-01-25T14:46:23.990Z,6.01
2023-01-25T14:48:54.028Z,5.69
2023-01-25T14:51:27.884Z,5.96
2023-01-25T14:54:01.962Z,5.85
2023-01-25T14:56:42.270Z,5.96
2023-01-25T14:59:23.952Z,6.00
2023-01-25T15:01:52.438Z,6.33
2023-01-25T15:04:21.554Z,5.37
2023-01-25T15:06:53.028Z,5.19
2023-01-25T15:09:38.763Z,5.50
2023-01-25T15:12:25.375Z,5.22
2023-01-25T15:14:56.176Z,5.06
2023-01-25T15:17:42.108Z,5.58
2023-01-25T15:20:45.288Z,5.63
2023-01-25T15:23:23.342Z,5.53
2023-01-25T15:25:53.769Z,5.27
2023-01-25T15:28:23.538Z,5.15
2023-01-25T15:30:52.446Z,5.06
2023-01-25T15:33:23.092Z,5.42
2023-01-25T15:35:52.351Z,5.32
2023-01-25T15:38:23.062Z,5.52
2023-01-25T15:40:51.744Z,5.11
2023-01-25T15:43:21.023Z,4.84
2023-01-25T15:45:51.839Z,4.91
2023-01-25T15:48:34.117Z,4.83
2023-01-25T15:51:03.113Z,4.43
2023-01-25T15:53:32.911Z,4.58
2023-01-25T15:56:03.306Z,4.58
2023-01-25T15:58:33.988Z,4.59
2023-01-25T16:01:02.690Z,4.42
2023-01-25T16:03:32.763Z,4.49
2023-01-25T16:06:03.257Z,4.65
2023-01-25T16:08:35.774Z,4.47
2023-01-25T16:11:04.496Z,3.98
2023-01-25T16:13:32.857Z,3.86
2023-01-25T16:16:01.382Z,4.03
2023-01-25T16:18:29.814Z,4.24
2023-01-25T16:20:58.396Z,4.15
2023-01-25T16:23:26.741Z,3.95
2023-01-25T16:25:56.594Z,4.10
2023-01-25T16:28:24.833Z,3.81
2023-01-25T16:30:53.576Z,3.92
2023-01-25T16:33:24.375Z,3.61
2023-01-25T16:36:05.035Z,4.05
2023-01-25T16:38:33.452Z,3.53
2023-01-25T16:41:03.311Z,3.83
2023-01-25T16:43:42.130Z,3.48
2023-01-25T16:46:16.603Z,3.83
2023-01-25T16:48:45.129Z,3.55
2023-01-25T16:51:21.506Z,3.59
2023-01-25T16:53:51.320Z,3.49
2023-01-25T16:56:25.673Z,3.55
2023-01-25T16:58:56.476Z,3.66
2023-01-25T17:01:25.932Z,3.75
2023-01-25T17:03:55.843Z,3.69
2023-01-25T17:06:26.693Z,4.02
2023-01-25T17:08:58.861Z,4.11
2023-01-25T17:11:29.386Z,3.76
2023-01-25T17:13:59.699Z,3.69
2023-01-25T17:16:30.041Z,3.88
2023-01-25T17:19:00.253Z,3.95
2023-01-25T17:21:29.211Z,3.86
2023-01-25T17:23:59.584Z,4.14
2023-01-25T17:26:30.910Z,3.91
2023-01-25T17:29:02.339Z,3.69
2023-01-25T17:31:33.340Z,3.80
2023-01-25T17:34:03.581Z,3.72
2023-01-25T17:36:32.493Z,3.37
2023-01-25T17:39:05.108Z,3.62
2023-01-25T17:41:35.354Z,3.56
2023-01-25T17:44:04.020Z,3.30
2023-01-25T17:46:36.515Z,3.56
2023-01-25T17:49:06.130Z,3.50
2023-01-25T17:51:36.426Z,3.36
2023-01-25T17:54:06.248Z,3.56
2023-01-25T17:56:39.390Z,3.30
2023-01-25T17:59:09.120Z,3.46
2023-01-25T18:01:39.153Z,3.82
2023-01-25T18:04:08.771Z,3.63
2023-01-25T18:06:37.834Z,3.49
2023-01-25T18:09:07.347Z,3.37
2023-01-25T18:11:40.309Z,3.99
2023-01-25T18:14:10.660Z,3.92
2023-01-25T18:16:41.110Z,3.84
2023-01-25T18:19:10.293Z,3.44
2023-01-25T18:21:40.912Z,3.28
2023-01-25T18:24:25.240Z,3.85
2023-01-25T18:27:01.573Z,3.12
2023-01-25T18:29:46.568Z,3.62
2023-01-25T18:32:15.600Z,3.34
2023-01-25T18:34:44.376Z,3.23
2023-01-25T18:37:23.587Z,3.48
2023-01-25T18:39:53.518Z,3.64
2023-01-25T18:42:26.122Z,3.63
2023-01-25T18:44:54.789Z,3.46
2023-01-25T18:47:24.303Z,3.48
2023-01-25T18:49:53.772Z,3.28
2023-01-25T18:52:24.485Z,3.50
2023-01-25T18:54:53.818Z,3.01
2023-01-25T18:57:25.335Z,3.34
2023-01-25T18:59:54.540Z,3.06
2023-01-25T19:02:24.051Z,3.01
2023-01-25T19:04:52.605Z,2.86
2023-01-25T19:07:22.031Z,3.12
2023-01-25T19:09:50.424Z,2.99
2023-01-25T19:12:19.112Z,3.13
2023-01-25T19:14:48.850Z,3.46
2023-01-25T19:17:17.683Z,3.14
2023-01-25T19:19:46.231Z,3.26
2023-01-25T19:22:14.740Z,3.21
2023-01-25T19:24:43.893Z,3.37
2023-01-25T19:27:12.589Z,3.25
2023-01-25T19:29:41.114Z,3.23
2023-01-25T19:32:11.948Z,3.20
2023-01-25T19:34:40.466Z,2.96
2023-01-25T19:37:09.402Z,2.84
2023-01-25T19:39:38.276Z,3.06
2023-01-25T19:42:07.293Z,2.88
2023-01-25T19:44:35.828Z,2.96
2023-01-25T19:47:12.262Z,3.16
2023-01-25T19:49:42.432Z,2.82
2023-01-25T19:52:11.054Z,2.55
2023-01-25T19:54:39.357Z,2.20
2023-01-25T19:57:07.975Z,2.59
2023-01-25T19:59:36.339Z,2.44
2023-01-25T20:02:05.131Z,1.98
2023-01-25T20:04:34.794Z,2.11
2023-01-25T20:07:04.718Z,2.70
2023-01-25T20:09:33.111Z,2.20
2023-01-25T20:12:03.153Z,2.00
2023-01-25T20:14:31.673Z,2.26
2023-01-25T20:17:00.251Z,2.43
2023-01-25T20:19:28.558Z,2.35
2023-01-25T20:22:00.154Z,2.37
2023-01-25T20:24:30.545Z,2.99
2023-01-25T20:26:59.790Z,2.64
2023-01-25T20:29:29.176Z,2.46
2023-01-25T20:31:58.147Z,2.49
2023-01-25T20:34:27.392Z,2.66
2023-01-25T20:36:56.140Z,2.43
2023-01-25T20:39:24.837Z,2.57
2023-01-25T20:41:56.773Z,2.80
2023-01-25T20:44:25.199Z,2.54
2023-01-25T20:46:54.537Z,2.45
2023-01-25T20:49:24.191Z,2.59
2023-01-25T20:51:53.379Z,2.15
2023-01-25T20:54:22.087Z,2.49
2023-01-25T20:56:50.787Z,2.37
2023-01-25T20:59:20.753Z,2.74
2023-01-25T21:01:50.527Z,2.52
2023-01-25T21:04:19.143Z,2.64
2023-01-25T21:06:47.628Z,2.76
2023-01-25T21:09:19.580Z,2.91
2023-01-25T21:11:48.821Z,2.49
2023-01-25T21:14:17.624Z,2.27
2023-01-25T21:16:47.786Z,2.60
2023-01-25T21:19:16.268Z,2.39
2023-01-25T21:21:44.926Z,2.49
2023-01-25T21:24:13.225Z,2.41
2023-01-25T21:26:42.004Z,2.58
2023-01-25T21:29:10.268Z,2.51
2023-01-25T21:31:42.555Z,2.79
2023-01-25T21:34:12.410Z,2.82
2023-01-25T21:36:42.147Z,2.58
2023-01-25T21:39:10.400Z,2.45
2023-01-25T21:41:39.112Z,2.54
2023-01-25T21:44:25.032Z,2.60
2023-01-25T21:47:27.446Z,2.21
2023-01-25T21:50:01.113Z,2.70
2023-01-25T21:52:29.907Z,2.23
2023-01-25T21:54:58.191Z,1.91
2023-01-25T21:57:27.274Z,2.28
2023-01-25T21:59:55.812Z,2.33
2023-01-25T22:02:24.616Z,2.26
2023-01-25T22:04:54.336Z,2.44
2023-01-25T22:07:22.847Z,2.30
2023-01-25T22:09:51.612Z,2.29
2023-01-25T22:12:20.213Z,2.24
2023-01-25T22:14:48.458Z,2.01
2023-01-25T22:17:19.134Z,2.18
2023-01-25T22:19:47.326Z,2.08
2023-01-25T22:22:17.687Z,2.25
2023-01-25T22:24:46.208Z,2.03
2023-01-25T22:27:38.935Z,2.38
2023-01-25T22:30:08.671Z,2.21
2023-01-25T22:32:37.509Z,2.06
2023-01-25T22:35:06.296Z,2.17
2023-01-25T22:37:38.277Z,2.52
2023-01-25T22:40:08.832Z,2.42
2023-01-25T22:42:40.505Z,2.43
2023-01-25T22:45:09.675Z,2.50
2023-01-25T22:47:38.358Z,2.26
2023-01-25T22:50:07.573Z,2.32
2023-01-25T22:52:37.567Z,2.48
2023-01-25T22:55:06.232Z,2.09
2023-01-25T22:57:34.789Z,2.17
2023-01-25T23:00:03.060Z,1.95
2023-01-25T23:02:32.195Z,1.90
2023-01-25T23:05:00.489Z,1.26
2023-01-25T23:07:29.070Z,1.65
2023-01-25T23:09:58.824Z,1.99
2023-01-25T23:12:27.374Z,1.99
2023-01-25T23:14:59.198Z,2.16
2023-01-25T23:17:45.125Z,2.13
2023-01-25T23:20:14.434Z,2.30
2023-01-25T23:22:42.929Z,2.11
2023-01-25T23:25:13.279Z,2.56
2023-01-25T23:27:41.741Z,2.10
2023-01-25T23:30:11.534Z,2.40
2023-01-25T23:32:40.392Z,2.07
2023-01-25T23:35:09.393Z,2.23
2023-01-25T23:37:37.904Z,1.89
2023-01-25T23:40:09.645Z,1.84
2023-01-25T23:42:39.800Z,1.94
2023-01-25T23:45:10.576Z,2.14
2023-01-25T23:47:39.123Z,1.74
2023-01-25T23:50:09.082Z,1.57
2023-01-25T23:52:38.014Z,1.12
2023-01-25T23:55:07.917Z,1.56
2023-01-25T23:57:36.485Z,1.72
